createdAt,value
2023-03-16T00:02:21.689Z,-1.53
2023-03-16T00:04:48.400Z,-1.51
2023-03-16T00:07:15.575Z,-1.62
2023-03-16T00:09:42.493Z,-1.67
2023-03-16T00:12:19.933Z,-1.64
2023-03-16T00:14:48.392Z,-1.53
2023-03-16T00:17:20.639Z,-1.56
2023-03-16T00:19:54.982Z,-1.77
2023-03-16T00:22:31.166Z,-1.76
2023-03-16T00:24:58.396Z,-1.66
2023-03-16T00:27:26.388Z,-1.59
2023-03-16T00:29:57.092Z,-1.63
2023-03-16T00:32:26.796Z,-1.72
2023-03-16T00:34:53.474Z,-1.75
2023-03-16T00:37:23.244Z,-1.76
2023-03-16T00:39:51.655Z,-1.74
2023-03-16T00:42:20.112Z,-1.72
2023-03-16T00:44:46.856Z,-1.79
2023-03-16T00:47:14.448Z,-1.68
2023-03-16T00:49:43.300Z,-1.70
2023-03-16T00:52:15.149Z,-1.80
2023-03-16T00:54:46.482Z,-1.86
2023-03-16T00:57:16.435Z,-1.92
2023-03-16T00:59:42.947Z,-1.89
2023-03-16T01:02:11.086Z,-1.90
2023-03-16T01:04:37.914Z,-1.87
2023-03-16T01:07:05.156Z,-1.83
2023-03-16T01:09:37.090Z,-1.84
2023-03-16T01:12:10.744Z,-1.85
2023-03-16T01:14:38.551Z,-1.73
2023-03-16T01:17:08.355Z,-1.77
2023-03-16T01:19:36.936Z,-1.79
2023-03-16T01:22:05.765Z,-1.79
2023-03-16T01:24:34.711Z,-1.87
2023-03-16T01:27:01.633Z,-1.89
2023-03-16T01:29:28.241Z,-1.94
2023-03-16T01:31:57.050Z,-1.90
2023-03-16T01:34:23.551Z,-1.91
2023-03-16T01:36:51.240Z,-1.90
2023-03-16T01:39:25.923Z,-2.01
2023-03-16T01:41:52.476Z,-1.98
2023-03-16T01:44:23.011Z,-2.03
2023-03-16T01:46:50.021Z,-1.99
2023-03-16T01:49:25.166Z,-2.09
2023-03-16T01:52:03.327Z,-2.26
2023-03-16T01:55:00.529Z,-2.23
2023-03-16T01:57:30.736Z,-2.04
2023-03-16T02:00:19.566Z,-2.00
2023-03-16T02:03:08.166Z,-2.02
2023-03-16T02:05:47.124Z,-2.12
2023-03-16T02:08:16.971Z,-2.26
2023-03-16T02:10:45.006Z,-2.14
2023-03-16T02:13:12.564Z,-2.04
2023-03-16T02:15:39.338Z,-2.08
2023-03-16T02:18:07.793Z,-2.08
2023-03-16T02:20:50.039Z,-1.98
2023-03-16T02:23:19.400Z,-1.88
2023-03-16T02:26:28.404Z,-2.01
2023-03-16T02:29:22.523Z,-2.03
2023-03-16T02:31:52.019Z,-2.01
2023-03-16T02:34:19.346Z,-1.91
2023-03-16T02:36:48.720Z,-1.80
2023-03-16T02:39:17.690Z,-1.79
2023-03-16T02:41:46.738Z,-1.76
2023-03-16T02:44:24.986Z,-1.90
2023-03-16T02:47:00.048Z,-2.04
2023-03-16T02:49:34.036Z,-1.90
2023-03-16T02:52:00.528Z,-1.84
2023-03-16T02:54:27.261Z,-1.81
2023-03-16T02:56:53.900Z,-1.85
2023-03-16T02:59:21.510Z,-1.79
2023-03-16T03:01:48.076Z,-1.89
2023-03-16T03:04:15.963Z,-1.89
2023-03-16T03:06:42.905Z,-1.88
2023-03-16T03:09:13.239Z,-2.01
2023-03-16T03:11:41.090Z,-1.94
2023-03-16T03:14:08.016Z,-1.97
2023-03-16T03:16:36.618Z,-1.88
2023-03-16T03:19:03.165Z,-1.80
2023-03-16T03:21:34.664Z,-1.77
2023-03-16T03:24:01.112Z,-1.94
2023-03-16T03:26:27.588Z,-1.98
2023-03-16T03:28:57.365Z,-1.99
2023-03-16T03:31:23.892Z,-2.09
2023-03-16T03:33:51.353Z,-2.10
2023-03-16T03:36:18.246Z,-1.96
2023-03-16T03:38:45.475Z,-1.88
2023-03-16T03:41:12.693Z,-1.94
2023-03-16T03:43:39.566Z,-1.90
2023-03-16T03:46:11.255Z,-1.77
2023-03-16T03:48:37.773Z,-1.88
2023-03-16T03:51:05.522Z,-1.90
2023-03-16T03:53:46.698Z,-1.92
2023-03-16T03:56:21.061Z,-1.86
2023-03-16T03:58:47.697Z,-1.87
2023-03-16T04:01:21.596Z,-2.06
2023-03-16T04:03:48.694Z,-2.09
2023-03-16T04:06:16.004Z,-1.98
2023-03-16T04:08:42.839Z,-1.81
2023-03-16T04:11:12.764Z,-1.75
2023-03-16T04:13:39.648Z,-1.71
2023-03-16T04:16:06.286Z,-1.84
2023-03-16T04:18:40.233Z,-1.70
2023-03-16T04:21:14.334Z,-1.75
2023-03-16T04:23:42.521Z,-1.86
2023-03-16T04:26:09.603Z,-1.70
2023-03-16T04:28:36.569Z,-1.78
2023-03-16T04:31:08.636Z,-1.78
2023-03-16T04:33:40.458Z,-1.73
2023-03-16T04:36:07.507Z,-1.90
2023-03-16T04:38:36.627Z,-1.83
2023-03-16T04:41:05.626Z,-1.80
2023-03-16T04:43:36.289Z,-1.85
2023-03-16T04:46:16.526Z,-1.65
2023-03-16T04:48:43.093Z,-1.57
2023-03-16T04:51:10.600Z,-1.64
2023-03-16T04:53:41.451Z,-1.67
2023-03-16T04:56:19.645Z,-1.74
2023-03-16T04:58:51.289Z,-1.73
2023-03-16T05:01:20.016Z,-1.72
2023-03-16T05:03:49.769Z,-1.72
2023-03-16T05:06:16.902Z,-1.69
2023-03-16T05:08:43.417Z,-1.57
2023-03-16T05:11:10.150Z,-1.53
2023-03-16T05:13:46.256Z,-1.38
2023-03-16T05:16:12.947Z,-1.34
2023-03-16T05:18:41.616Z,-1.29
2023-03-16T05:21:08.326Z,-1.30
2023-03-16T05:23:48.750Z,-1.29
2023-03-16T05:26:15.213Z,-1.21
2023-03-16T05:28:42.511Z,-1.20
2023-03-16T05:31:12.093Z,-1.22
2023-03-16T05:33:44.543Z,-1.34
2023-03-16T05:36:15.729Z,-1.39
2023-03-16T05:38:45.993Z,-1.39
2023-03-16T05:41:21.470Z,-1.30
2023-03-16T05:44:14.070Z,-1.38
2023-03-16T05:47:04.044Z,-1.42
2023-03-16T05:49:32.376Z,-1.39
2023-03-16T05:52:01.842Z,-1.40
2023-03-16T05:54:30.873Z,-1.31
2023-03-16T05:56:57.474Z,-1.39
2023-03-16T05:59:24.235Z,-1.27
2023-03-16T06:01:54.475Z,-1.26
2023-03-16T06:04:21.853Z,-1.34
2023-03-16T06:06:48.759Z,-1.27
2023-03-16T06:09:24.327Z,-1.19
2023-03-16T06:11:51.143Z,-1.15
2023-03-16T06:14:21.138Z,-0.96
2023-03-16T06:16:47.876Z,-0.89
2023-03-16T06:19:15.782Z,-0.64
2023-03-16T06:22:01.164Z,-0.58
2023-03-16T06:24:28.351Z,-0.32
2023-03-16T06:26:54.834Z,-0.15
2023-03-16T06:29:25.669Z,-0.10
2023-03-16T06:31:52.706Z,-0.22
2023-03-16T06:34:20.901Z,-0.10
2023-03-16T06:36:47.406Z,-0.28
2023-03-16T06:39:14.768Z,-0.04
2023-03-16T06:41:45.297Z,-0.18
2023-03-16T06:44:14.377Z,0.27
2023-03-16T06:46:51.250Z,0.67
2023-03-16T06:49:17.694Z,1.47
2023-03-16T06:51:44.224Z,2.40
2023-03-16T06:54:11.688Z,4.07
2023-03-16T06:56:39.780Z,5.36
2023-03-16T06:59:06.985Z,6.15
2023-03-16T07:01:33.620Z,6.51
2023-03-16T07:04:01.802Z,5.72
2023-03-16T07:06:31.253Z,5.95
2023-03-16T07:08:57.764Z,6.25
2023-03-16T07:11:24.777Z,6.44
2023-03-16T07:13:51.757Z,5.81
2023-03-16T07:16:20.281Z,7.84
2023-03-16T07:18:47.793Z,6.70
2023-03-16T07:21:16.319Z,6.56
2023-03-16T07:23:44.677Z,7.28
2023-03-16T07:26:13.924Z,9.04
2023-03-16T07:28:49.779Z,8.48
2023-03-16T07:31:16.894Z,8.87
2023-03-16T07:33:43.668Z,8.48
2023-03-16T07:36:14.403Z,8.06
2023-03-16T07:38:46.489Z,7.71
2023-03-16T07:41:14.074Z,6.97
2023-03-16T07:43:41.142Z,7.94
2023-03-16T07:46:10.550Z,7.63
2023-03-16T07:48:37.401Z,7.07
2023-03-16T07:51:03.921Z,7.11
2023-03-16T07:53:30.931Z,7.47
2023-03-16T07:56:17.654Z,5.68
2023-03-16T07:58:47.143Z,6.00
2023-03-16T08:01:13.798Z,5.48
2023-03-16T08:03:40.434Z,5.64
2023-03-16T08:06:07.079Z,6.17
2023-03-16T08:08:35.176Z,6.34
2023-03-16T08:11:01.790Z,6.68
2023-03-16T08:13:43.803Z,7.28
2023-03-16T08:16:10.590Z,7.13
2023-03-16T08:18:39.496Z,7.32
2023-03-16T08:21:06.675Z,7.25
2023-03-16T08:23:33.831Z,7.10
2023-03-16T08:26:01.101Z,6.54
2023-03-16T08:28:27.984Z,6.83
2023-03-16T08:30:58.453Z,7.46
2023-03-16T08:33:46.865Z,8.19
2023-03-16T08:36:16.729Z,7.91
2023-03-16T08:39:03.749Z,7.53
2023-03-16T08:41:35.285Z,7.64
2023-03-16T08:44:07.748Z,8.66
2023-03-16T08:46:34.491Z,8.14
2023-03-16T08:49:02.734Z,8.82
2023-03-16T08:51:29.520Z,9.27
2023-03-16T08:53:56.022Z,9.11
2023-03-16T08:56:22.895Z,8.85
2023-03-16T08:58:50.604Z,8.80
2023-03-16T09:01:19.551Z,9.87
2023-03-16T09:03:46.526Z,9.47
2023-03-16T09:06:15.684Z,10.11
2023-03-16T09:08:44.314Z,11.13
2023-03-16T09:11:17.104Z,10.40
2023-03-16T09:13:44.628Z,10.17
2023-03-16T09:16:13.825Z,9.80
2023-03-16T09:18:41.162Z,10.57
2023-03-16T09:21:10.365Z,11.66
2023-03-16T09:23:37.611Z,9.74
2023-03-16T09:26:07.437Z,11.63
2023-03-16T09:28:36.036Z,10.86
2023-03-16T09:31:03.304Z,10.30
2023-03-16T09:33:32.045Z,10.51
2023-03-16T09:35:59.948Z,11.05
2023-03-16T09:38:26.820Z,10.37
2023-03-16T09:41:06.657Z,10.80
2023-03-16T09:43:51.689Z,10.80
2023-03-16T09:46:25.574Z,10.54
2023-03-16T09:48:53.787Z,10.11
2023-03-16T09:51:32.472Z,10.76
2023-03-16T09:54:02.792Z,11.18
2023-03-16T09:56:36.617Z,11.31
2023-03-16T09:59:11.797Z,11.95
2023-03-16T10:01:44.002Z,11.15
2023-03-16T10:04:32.285Z,12.09
2023-03-16T10:07:20.063Z,11.09
2023-03-16T10:10:05.380Z,11.24
2023-03-16T10:12:41.815Z,12.03
2023-03-16T10:15:18.413Z,11.54
2023-03-16T10:18:13.483Z,11.89
2023-03-16T10:20:41.881Z,11.59
2023-03-16T10:23:18.373Z,10.86
2023-03-16T10:25:48.961Z,10.76
2023-03-16T10:28:31.989Z,11.47
2023-03-16T10:31:00.713Z,11.57
2023-03-16T10:33:36.487Z,12.04
2023-03-16T10:36:34.506Z,11.83
2023-03-16T10:39:07.823Z,11.77
2023-03-16T10:41:37.283Z,12.08
2023-03-16T10:44:11.994Z,11.66
2023-03-16T10:46:41.850Z,11.78
2023-03-16T10:49:44.302Z,11.87
2023-03-16T10:52:29.666Z,11.91
2023-03-16T10:55:00.937Z,12.53
2023-03-16T10:57:27.367Z,12.50
2023-03-16T10:59:57.578Z,13.00
2023-03-16T11:02:31.786Z,13.66
2023-03-16T11:04:58.603Z,13.82
2023-03-16T11:07:25.584Z,14.84
2023-03-16T11:09:53.792Z,15.19
2023-03-16T11:12:41.417Z,13.61
2023-03-16T11:15:25.089Z,14.08
2023-03-16T11:17:55.150Z,14.36
2023-03-16T11:20:28.532Z,15.10
2023-03-16T11:22:56.229Z,13.14
2023-03-16T11:25:46.991Z,14.75
2023-03-16T11:28:24.055Z,14.41
2023-03-16T11:31:10.080Z,13.06
2023-03-16T11:33:37.960Z,13.78
2023-03-16T11:36:20.447Z,13.97
2023-03-16T11:38:58.936Z,15.71
2023-03-16T11:41:32.120Z,15.06
2023-03-16T11:44:25.003Z,14.57
2023-03-16T11:47:13.322Z,16.10
2023-03-16T11:50:11.731Z,17.14
2023-03-16T11:52:57.414Z,16.96
2023-03-16T11:56:08.215Z,14.91
2023-03-16T11:58:51.592Z,15.19
2023-03-16T12:01:20.788Z,15.94
2023-03-16T12:04:01.911Z,15.96
2023-03-16T12:06:41.472Z,17.30
2023-03-16T12:09:18.646Z,18.10
2023-03-16T12:12:11.863Z,18.03
2023-03-16T12:14:59.638Z,18.65
2023-03-16T12:17:31.346Z,18.36
2023-03-16T12:20:14.011Z,18.94
2023-03-16T12:22:52.196Z,18.38
2023-03-16T12:25:22.440Z,18.77
2023-03-16T12:28:00.351Z,17.54
2023-03-16T12:30:43.846Z,18.94
2023-03-16T12:33:10.303Z,18.86
2023-03-16T12:35:45.084Z,17.01
2023-03-16T12:38:29.977Z,18.03
2023-03-16T12:41:11.860Z,17.87
2023-03-16T12:43:52.831Z,18.98
2023-03-16T12:46:36.298Z,18.90
2023-03-16T12:49:06.869Z,17.52
2023-03-16T12:51:43.909Z,18.20
2023-03-16T12:54:22.745Z,17.98
2023-03-16T12:56:51.595Z,19.26
2023-03-16T12:59:21.035Z,18.42
2023-03-16T13:01:53.574Z,18.48
2023-03-16T13:04:29.442Z,17.69
2023-03-16T13:07:16.524Z,17.42
2023-03-16T13:10:10.099Z,18.63
2023-03-16T13:12:40.629Z,17.70
2023-03-16T13:15:23.467Z,17.40
2023-03-16T13:18:03.392Z,17.16
2023-03-16T13:20:32.813Z,16.86
2023-03-16T13:23:24.007Z,15.90
2023-03-16T13:26:12.730Z,15.59
2023-03-16T13:28:39.310Z,14.57
2023-03-16T13:31:21.582Z,14.70
2023-03-16T13:33:49.483Z,14.30
2023-03-16T13:36:17.525Z,14.31
2023-03-16T13:38:44.644Z,14.17
2023-03-16T13:41:14.218Z,13.94
2023-03-16T13:43:44.095Z,13.82
2023-03-16T13:46:15.736Z,13.74
2023-03-16T13:48:42.643Z,13.75
2023-03-16T13:51:22.564Z,13.32
2023-03-16T13:53:50.697Z,13.78
2023-03-16T13:56:23.773Z,13.55
2023-03-16T13:58:52.351Z,13.32
2023-03-16T14:01:25.317Z,13.44
2023-03-16T14:03:53.605Z,13.32
2023-03-16T14:06:28.670Z,13.25
2023-03-16T14:09:05.451Z,13.38
2023-03-16T14:11:32.045Z,13.10
2023-03-16T14:14:02.017Z,13.27
2023-03-16T14:16:31.857Z,13.07
2023-03-16T14:19:02.626Z,13.03
2023-03-16T14:21:31.854Z,12.82
2023-03-16T14:24:02.046Z,12.93
2023-03-16T14:26:40.964Z,12.81
2023-03-16T14:29:28.340Z,12.93
2023-03-16T14:31:55.417Z,12.55
2023-03-16T14:34:36.228Z,13.10
2023-03-16T14:37:15.754Z,12.93
2023-03-16T14:39:42.761Z,12.59
2023-03-16T14:42:24.257Z,12.49
2023-03-16T14:44:50.992Z,12.40
2023-03-16T14:47:25.013Z,12.22
2023-03-16T14:49:53.290Z,12.10
2023-03-16T14:52:27.118Z,12.09
2023-03-16T14:54:55.221Z,11.94
2023-03-16T14:57:22.382Z,12.07
2023-03-16T14:59:48.843Z,11.95
2023-03-16T15:02:20.362Z,11.73
2023-03-16T15:04:48.372Z,11.62
2023-03-16T15:07:25.017Z,11.59
2023-03-16T15:09:53.897Z,11.61
2023-03-16T15:12:21.757Z,11.51
2023-03-16T15:15:06.909Z,11.30
2023-03-16T15:17:33.605Z,11.22
2023-03-16T15:20:00.161Z,11.25
2023-03-16T15:22:32.305Z,11.27
2023-03-16T15:25:01.491Z,11.41
2023-03-16T15:27:32.788Z,11.44
2023-03-16T15:29:59.550Z,11.40
2023-03-16T15:32:26.305Z,11.35
2023-03-16T15:34:52.903Z,11.10
2023-03-16T15:37:20.342Z,11.13
2023-03-16T15:39:47.326Z,11.04
2023-03-16T15:42:18.736Z,10.86
2023-03-16T15:44:46.588Z,10.65
2023-03-16T15:47:13.289Z,10.75
2023-03-16T15:49:47.260Z,10.64
2023-03-16T15:52:32.488Z,10.57
2023-03-16T15:55:04.358Z,10.38
2023-03-16T15:57:31.961Z,10.53
2023-03-16T15:59:59.264Z,10.44
2023-03-16T16:02:29.814Z,10.41
2023-03-16T16:04:57.074Z,10.31
2023-03-16T16:07:23.971Z,10.12
2023-03-16T16:09:51.111Z,10.13
2023-03-16T16:12:19.638Z,10.16
2023-03-16T16:14:46.221Z,10.06
2023-03-16T16:17:36.629Z,9.96
2023-03-16T16:20:22.900Z,9.82
2023-03-16T16:22:51.931Z,9.92
2023-03-16T16:25:21.328Z,9.86
2023-03-16T16:27:48.117Z,9.63
2023-03-16T16:30:21.898Z,9.68
2023-03-16T16:32:49.167Z,9.65
2023-03-16T16:35:24.023Z,9.55
2023-03-16T16:37:51.230Z,9.40
2023-03-16T16:40:23.337Z,9.42
2023-03-16T16:42:52.961Z,9.44
2023-03-16T16:45:23.327Z,9.46
2023-03-16T16:47:52.226Z,9.30
2023-03-16T16:50:23.386Z,9.15
2023-03-16T16:52:50.562Z,8.99
2023-03-16T16:55:18.100Z,8.98
2023-03-16T16:57:45.430Z,8.88
2023-03-16T17:00:30.242Z,8.84
2023-03-16T17:02:58.512Z,8.72
2023-03-16T17:05:29.930Z,8.69
2023-03-16T17:07:56.589Z,8.71
2023-03-16T17:10:27.170Z,8.84
2023-03-16T17:12:56.836Z,8.64
2023-03-16T17:15:27.907Z,8.64
2023-03-16T17:18:02.251Z,8.58
2023-03-16T17:20:30.005Z,8.58
2023-03-16T17:22:58.680Z,8.53
2023-03-16T17:25:25.708Z,8.36
2023-03-16T17:27:54.517Z,8.42
2023-03-16T17:30:25.281Z,8.15
2023-03-16T17:32:53.700Z,8.01
2023-03-16T17:35:20.649Z,7.86
2023-03-16T17:37:47.867Z,7.61
2023-03-16T17:40:20.220Z,7.44
2023-03-16T17:42:47.777Z,7.34
2023-03-16T17:45:20.866Z,7.48
2023-03-16T17:47:48.140Z,7.45
2023-03-16T17:50:24.492Z,7.32
2023-03-16T17:52:52.861Z,7.09
2023-03-16T17:55:22.662Z,6.70
2023-03-16T17:57:53.526Z,6.72
2023-03-16T18:00:23.576Z,6.52
2023-03-16T18:02:56.078Z,6.45
2023-03-16T18:05:31.180Z,6.36
2023-03-16T18:08:20.502Z,6.18
2023-03-16T18:10:49.961Z,6.13
2023-03-16T18:13:21.099Z,6.07
2023-03-16T18:15:48.533Z,5.83
2023-03-16T18:18:23.561Z,5.61
2023-03-16T18:20:52.055Z,5.39
2023-03-16T18:23:21.422Z,5.36
2023-03-16T18:25:49.982Z,5.41
2023-03-16T18:28:18.011Z,5.45
2023-03-16T18:30:47.511Z,5.33
2023-03-16T18:33:27.434Z,5.22
2023-03-16T18:35:56.894Z,5.28
2023-03-16T18:38:31.075Z,5.16
2023-03-16T18:41:00.652Z,5.08
2023-03-16T18:43:27.855Z,4.97
2023-03-16T18:45:55.090Z,5.07
2023-03-16T18:48:31.540Z,5.03
2023-03-16T18:50:58.707Z,4.83
2023-03-16T18:53:26.593Z,4.79
2023-03-16T18:55:55.061Z,4.68
2023-03-16T18:58:24.620Z,4.77
2023-03-16T19:00:57.528Z,4.84
2023-03-16T19:03:30.266Z,4.70
2023-03-16T19:05:58.600Z,4.58
2023-03-16T19:08:26.922Z,4.51
2023-03-16T19:10:56.965Z,4.55
2023-03-16T19:13:24.505Z,4.46
2023-03-16T19:15:53.048Z,4.38
2023-03-16T19:18:19.639Z,4.43
2023-03-16T19:20:50.165Z,4.35
2023-03-16T19:23:22.886Z,4.19
2023-03-16T19:25:50.798Z,4.04
2023-03-16T19:28:36.624Z,3.98
2023-03-16T19:31:13.589Z,3.93
2023-03-16T19:33:40.033Z,3.88
2023-03-16T19:36:11.554Z,3.91
2023-03-16T19:38:37.997Z,3.96
2023-03-16T19:41:05.182Z,3.90
2023-03-16T19:43:31.709Z,3.84
2023-03-16T19:45:58.193Z,3.58
2023-03-16T19:48:32.958Z,3.68
2023-03-16T19:51:00.463Z,3.79
2023-03-16T19:53:27.462Z,3.83
2023-03-16T19:55:54.522Z,3.86
2023-03-16T19:58:30.145Z,3.78
2023-03-16T20:00:57.116Z,3.58
2023-03-16T20:03:23.758Z,3.37
2023-03-16T20:05:50.327Z,3.39
2023-03-16T20:08:26.532Z,3.37
2023-03-16T20:11:06.486Z,3.32
2023-03-16T20:13:34.760Z,3.35
2023-03-16T20:16:01.480Z,3.45
2023-03-16T20:18:29.326Z,3.54
2023-03-16T20:20:55.761Z,3.50
2023-03-16T20:23:26.245Z,3.39
2023-03-16T20:26:01.943Z,3.29
2023-03-16T20:28:36.986Z,3.14
2023-03-16T20:31:07.865Z,3.11
2023-03-16T20:33:34.374Z,3.35
2023-03-16T20:36:01.038Z,3.33
2023-03-16T20:38:27.570Z,3.38
2023-03-16T20:40:54.532Z,3.44
2023-03-16T20:43:30.091Z,3.21
2023-03-16T20:45:58.953Z,3.02
2023-03-16T20:48:27.364Z,3.04
2023-03-16T20:50:54.991Z,3.17
2023-03-16T20:53:22.390Z,3.27
2023-03-16T20:55:50.286Z,3.33
2023-03-16T20:58:29.150Z,3.37
2023-03-16T21:01:00.935Z,3.32
2023-03-16T21:03:30.806Z,3.36
2023-03-16T21:05:59.804Z,3.15
2023-03-16T21:08:27.146Z,2.98
2023-03-16T21:10:56.149Z,3.05
2023-03-16T21:13:31.848Z,3.24
2023-03-16T21:16:01.511Z,3.42
2023-03-16T21:18:29.123Z,3.32
2023-03-16T21:20:56.163Z,3.41
2023-03-16T21:23:23.872Z,3.23
2023-03-16T21:25:54.721Z,3.05
2023-03-16T21:28:23.184Z,3.00
2023-03-16T21:30:52.862Z,3.07
2023-03-16T21:33:53.810Z,3.31
2023-03-16T21:36:24.444Z,3.13
2023-03-16T21:38:51.618Z,3.04
2023-03-16T21:41:18.815Z,3.08
2023-03-16T21:43:46.961Z,3.20
2023-03-16T21:46:24.399Z,3.27
2023-03-16T21:48:54.643Z,3.14
2023-03-16T21:51:31.216Z,3.10
2023-03-16T21:53:58.095Z,3.00
2023-03-16T21:56:26.107Z,3.16
2023-03-16T21:58:54.025Z,3.34
2023-03-16T22:01:31.557Z,3.39
2023-03-16T22:04:02.657Z,3.31
2023-03-16T22:06:29.825Z,3.19
2023-03-16T22:08:59.566Z,3.23
2023-03-16T22:11:28.511Z,3.35
2023-03-16T22:13:56.527Z,3.41
2023-03-16T22:16:25.554Z,3.38
2023-03-16T22:18:56.311Z,3.45
2023-03-16T22:21:29.191Z,3.33
2023-03-16T22:23:56.998Z,3.40
2023-03-16T22:26:23.807Z,3.44
2023-03-16T22:28:53.555Z,3.39
2023-03-16T22:31:34.607Z,3.28
2023-03-16T22:34:03.050Z,3.35
2023-03-16T22:36:31.526Z,3.50
2023-03-16T22:39:12.198Z,3.52
2023-03-16T22:41:38.748Z,3.45
2023-03-16T22:44:05.540Z,3.47
2023-03-16T22:46:32.069Z,3.15
2023-03-16T22:48:58.622Z,3.15
2023-03-16T22:51:37.717Z,3.16
2023-03-16T22:54:08.959Z,3.09
2023-03-16T22:56:35.745Z,3.15
2023-03-16T22:59:06.969Z,3.25
2023-03-16T23:01:44.612Z,3.17
2023-03-16T23:04:23.034Z,3.15
2023-03-16T23:06:52.631Z,3.15
2023-03-16T23:09:21.806Z,3.36
2023-03-16T23:11:53.789Z,3.36
2023-03-16T23:14:27.182Z,3.21
2023-03-16T23:16:53.960Z,3.18
2023-03-16T23:19:25.110Z,3.02
2023-03-16T23:21:54.661Z,3.13
2023-03-16T23:24:22.024Z,3.06
2023-03-16T23:26:49.741Z,2.94
2023-03-16T23:29:16.580Z,2.94
2023-03-16T23:31:43.068Z,3.05
2023-03-16T23:34:11.793Z,3.20
2023-03-16T23:36:38.991Z,3.32
2023-03-16T23:39:06.093Z,3.36
2023-03-16T23:41:33.730Z,3.13
2023-03-16T23:44:01.380Z,3.13
2023-03-16T23:46:29.505Z,3.15
2023-03-16T23:48:58.486Z,3.25
2023-03-16T23:51:31.374Z,3.13
2023-03-16T23:53:58.483Z,3.22
2023-03-16T23:56:26.141Z,3.24
2023-03-16T23:58:54.198Z,3.18
